sensor_id;sensor_type;location;lat;lon;timestamp;pressure;altitude;pressure_sealevel;temperature;humidity
7052;BME280;3567;52.444;13.556;2023-05-09T00:01:52;102100.78;;;9.00;74.85
7052;BME280;3567;52.444;13.556;2023-05-09T00:04:18;102109.63;;;9.01;74.66
7052;BME280;3567;52.444;13.556;2023-05-09T00:06:44;102099.09;;;8.99;74.34
7052;BME280;3567;52.444;13.556;2023-05-09T00:09:10;102106.13;;;9.00;74.52
7052;BME280;3567;52.444;13.556;2023-05-09T00:11:35;102097.09;;;9.01;75.28
7052;BME280;3567;52.444;13.556;2023-05-09T00:14:00;102107.09;;;8.99;74.74
7052;BME280;3567;52.444;13.556;2023-05-09T00:16:27;102095.78;;;8.97;74.77
7052;BME280;3567;52.444;13.556;2023-05-09T00:18:53;102099.91;;;9.00;74.62
7052;BME280;3567;52.444;13.556;2023-05-09T00:21:18;102101.41;;;9.02;74.76
7052;BME280;3567;52.444;13.556;2023-05-09T00:23:43;102104.09;;;9.02;74.57
7052;BME280;3567;52.444;13.556;2023-05-09T00:26:09;102099.00;;;9.07;74.58
7052;BME280;3567;52.444;13.556;2023-05-09T00:28:34;102096.81;;;9.11;73.38
7052;BME280;3567;52.444;13.556;2023-05-09T00:31:00;102095.94;;;9.10;73.92
7052;BME280;3567;52.444;13.556;2023-05-09T00:33:25;102095.13;;;9.10;73.78
7052;BME280;3567;52.444;13.556;2023-05-09T00:35:52;102098.63;;;9.10;73.82
7052;BME280;3567;52.444;13.556;2023-05-09T00:38:18;102095.41;;;9.15;73.78
7052;BME280;3567;52.444;13.556;2023-05-09T00:40:43;102092.16;;;9.19;73.65
7052;BME280;3567;52.444;13.556;2023-05-09T00:43:08;102091.97;;;9.21;73.54
7052;BME280;3567;52.444;13.556;2023-05-09T00:45:34;102091.63;;;9.24;73.52
7052;BME280;3567;52.444;13.556;2023-05-09T00:47:59;102088.38;;;9.29;72.90
7052;BME280;3567;52.444;13.556;2023-05-09T00:50:25;102090.03;;;9.30;72.63
7052;BME280;3567;52.444;13.556;2023-05-09T00:52:50;102088.19;;;9.30;73.45
7052;BME280;3567;52.444;13.556;2023-05-09T00:55:17;102090.88;;;9.30;73.15
7052;BME280;3567;52.444;13.556;2023-05-09T00:57:42;102094.38;;;9.31;72.86
7052;BME280;3567;52.444;13.556;2023-05-09T01:00:09;102087.56;;;9.28;73.76
7052;BME280;3567;52.444;13.556;2023-05-09T01:02:42;102081.56;;;9.26;74.01
7052;BME280;3567;52.444;13.556;2023-05-09T01:05:09;102076.19;;;9.26;74.26
7052;BME280;3567;52.444;13.556;2023-05-09T01:08:06;102075.22;;;9.27;73.56
7052;BME280;3567;52.444;13.556;2023-05-09T01:10:40;102074.56;;;9.25;73.89
7052;BME280;3567;52.444;13.556;2023-05-09T01:13:24;102076.47;;;9.31;72.89
7052;BME280;3567;52.444;13.556;2023-05-09T01:15:57;102063.75;;;9.33;72.46
7052;BME280;3567;52.444;13.556;2023-05-09T01:21:09;102056.75;;;9.32;71.84
7052;BME280;3567;52.444;13.556;2023-05-09T01:29:41;102051.78;;;9.29;71.38
7052;BME280;3567;52.444;13.556;2023-05-09T01:32:15;102055.47;;;9.28;71.60
7052;BME280;3567;52.444;13.556;2023-05-09T01:34:43;102057.75;;;9.31;70.89
7052;BME280;3567;52.444;13.556;2023-05-09T01:37:10;102044.38;;;9.31;70.96
7052;BME280;3567;52.444;13.556;2023-05-09T01:39:39;102044.78;;;9.28;70.98
7052;BME280;3567;52.444;13.556;2023-05-09T01:42:07;102052.41;;;9.31;70.56
7052;BME280;3567;52.444;13.556;2023-05-09T01:44:39;102051.41;;;9.32;70.32
7052;BME280;3567;52.444;13.556;2023-05-09T01:47:06;102047.88;;;9.32;69.57
7052;BME280;3567;52.444;13.556;2023-05-09T01:49:34;102044.38;;;9.31;69.50
7052;BME280;3567;52.444;13.556;2023-05-09T01:52:07;102045.03;;;9.33;69.60
7052;BME280;3567;52.444;13.556;2023-05-09T01:54:33;102040.72;;;9.32;69.18
7052;BME280;3567;52.444;13.556;2023-05-09T01:57:02;102044.59;;;9.30;69.66
7052;BME280;3567;52.444;13.556;2023-05-09T01:59:29;102039.03;;;9.31;69.29
7052;BME280;3567;52.444;13.556;2023-05-09T02:01:56;102029.38;;;9.30;68.65
7052;BME280;3567;52.444;13.556;2023-05-09T02:04:22;102033.88;;;9.30;68.93
7052;BME280;3567;52.444;13.556;2023-05-09T02:06:49;102037.38;;;9.30;68.65
7052;BME280;3567;52.444;13.556;2023-05-09T02:09:17;102036.56;;;9.30;67.96
7052;BME280;3567;52.444;13.556;2023-05-09T02:11:42;102034.09;;;9.28;67.50
7052;BME280;3567;52.444;13.556;2023-05-09T02:14:07;102032.25;;;9.29;67.76
7052;BME280;3567;52.444;13.556;2023-05-09T02:16:33;102038.78;;;9.26;67.83
7052;BME280;3567;52.444;13.556;2023-05-09T02:18:58;102038.97;;;9.25;67.94
7052;BME280;3567;52.444;13.556;2023-05-09T02:21:23;102033.41;;;9.26;67.45
7052;BME280;3567;52.444;13.556;2023-05-09T02:23:49;102031.97;;;9.24;67.43
7052;BME280;3567;52.444;13.556;2023-05-09T02:26:15;102029.09;;;9.25;67.24
7052;BME280;3567;52.444;13.556;2023-05-09T02:28:42;102036.75;;;9.28;66.77
7052;BME280;3567;52.444;13.556;2023-05-09T02:31:08;102027.91;;;9.28;67.37
7052;BME280;3567;52.444;13.556;2023-05-09T02:33:36;102039.44;;;9.28;67.20
7052;BME280;3567;52.444;13.556;2023-05-09T02:36:03;102036.91;;;9.27;66.93
7052;BME280;3567;52.444;13.556;2023-05-09T02:38:30;102033.81;;;9.23;67.05
7052;BME280;3567;52.444;13.556;2023-05-09T02:40:56;102033.81;;;9.23;66.89
7052;BME280;3567;52.444;13.556;2023-05-09T02:43:22;102031.97;;;9.24;66.05
7052;BME280;3567;52.444;13.556;2023-05-09T02:45:47;102034.19;;;9.20;66.26
7052;BME280;3567;52.444;13.556;2023-05-09T02:48:12;102040.75;;;9.17;67.10
7052;BME280;3567;52.444;13.556;2023-05-09T02:50:38;102038.00;;;9.11;66.57
7052;BME280;3567;52.444;13.556;2023-05-09T02:53:06;102034.66;;;9.09;67.74
7052;BME280;3567;52.444;13.556;2023-05-09T02:55:31;102029.50;;;9.07;67.18
7052;BME280;3567;52.444;13.556;2023-05-09T02:57:56;102037.06;;;9.04;67.45
7052;BME280;3567;52.444;13.556;2023-05-09T03:00:22;102038.28;;;9.01;66.93
7052;BME280;3567;52.444;13.556;2023-05-09T03:02:49;102034.50;;;8.96;68.00
7052;BME280;3567;52.444;13.556;2023-05-09T03:05:15;102036.16;;;8.97;68.02
7052;BME280;3567;52.444;13.556;2023-05-09T03:07:40;102037.53;;;8.92;67.96
7052;BME280;3567;52.444;13.556;2023-05-09T03:10:06;102042.25;;;8.90;68.32
7052;BME280;3567;52.444;13.556;2023-05-09T03:12:31;102031.91;;;8.87;67.73
7052;BME280;3567;52.444;13.556;2023-05-09T03:14:56;102037.66;;;8.84;68.18
7052;BME280;3567;52.444;13.556;2023-05-09T03:17:22;102037.81;;;8.83;68.45
7052;BME280;3567;52.444;13.556;2023-05-09T03:19:47;102036.34;;;8.80;68.74
7052;BME280;3567;52.444;13.556;2023-05-09T03:22:13;102033.03;;;8.78;68.32
7052;BME280;3567;52.444;13.556;2023-05-09T03:24:38;102041.03;;;8.78;68.24
7052;BME280;3567;52.444;13.556;2023-05-09T03:27:04;102026.22;;;8.76;68.18
7052;BME280;3567;52.444;13.556;2023-05-09T03:29:29;102023.75;;;8.74;68.01
7052;BME280;3567;52.444;13.556;2023-05-09T03:31:55;102021.06;;;8.74;68.91
7052;BME280;3567;52.444;13.556;2023-05-09T03:34:20;102025.22;;;8.77;68.13
7052;BME280;3567;52.444;13.556;2023-05-09T03:36:45;102015.53;;;8.76;67.85
7052;BME280;3567;52.444;13.556;2023-05-09T03:39:11;102017.38;;;8.75;68.55
7052;BME280;3567;52.444;13.556;2023-05-09T03:41:36;102021.72;;;8.76;68.42
7052;BME280;3567;52.444;13.556;2023-05-09T03:44:02;102026.41;;;8.74;68.29
7052;BME280;3567;52.444;13.556;2023-05-09T03:46:27;102023.91;;;8.73;67.81
7052;BME280;3567;52.444;13.556;2023-05-09T03:48:53;102028.44;;;8.72;68.59
7052;BME280;3567;52.444;13.556;2023-05-09T03:51:18;102028.44;;;8.72;68.07
7052;BME280;3567;52.444;13.556;2023-05-09T03:53:45;102030.47;;;8.70;68.34
7052;BME280;3567;52.444;13.556;2023-05-09T03:56:11;102036.28;;;8.74;68.40
7052;BME280;3567;52.444;13.556;2023-05-09T03:58:36;102030.94;;;8.74;68.08
7052;BME280;3567;52.444;13.556;2023-05-09T04:01:02;102032.94;;;8.72;68.86
7052;BME280;3567;52.444;13.556;2023-05-09T04:03:27;102030.94;;;8.74;68.24
7052;BME280;3567;52.444;13.556;2023-05-09T04:05:52;102024.38;;;8.76;68.59
7052;BME280;3567;52.444;13.556;2023-05-09T04:08:18;102026.03;;;8.77;67.80
7052;BME280;3567;52.444;13.556;2023-05-09T04:10:43;102021.50;;;8.78;68.84
7052;BME280;3567;52.444;13.556;2023-05-09T04:13:08;102035.69;;;8.78;68.50
7052;BME280;3567;52.444;13.556;2023-05-09T04:15:34;102032.66;;;8.81;68.98
7052;BME280;3567;52.444;13.556;2023-05-09T04:17:59;102034.31;;;8.82;68.62
7052;BME280;3567;52.444;13.556;2023-05-09T04:20:24;102026.97;;;8.84;68.35
7052;BME280;3567;52.444;13.556;2023-05-09T04:22:50;102024.94;;;8.86;68.33
7052;BME280;3567;52.444;13.556;2023-05-09T04:25:15;102029.72;;;8.91;68.94
7052;BME280;3567;52.444;13.556;2023-05-09T04:27:40;102040.84;;;8.95;68.78
7052;BME280;3567;52.444;13.556;2023-05-09T04:30:06;102030.00;;;8.96;68.39
7052;BME280;3567;52.444;13.556;2023-05-09T04:32:32;102029.78;;;8.98;68.60
7052;BME280;3567;52.444;13.556;2023-05-09T04:34:57;102028.41;;;9.02;68.61
7052;BME280;3567;52.444;13.556;2023-05-09T04:37:23;102020.00;;;9.05;68.87
7052;BME280;3567;52.444;13.556;2023-05-09T04:39:48;102025.63;;;9.10;69.09
7052;BME280;3567;52.444;13.556;2023-05-09T04:42:13;102020.53;;;9.15;68.51
7052;BME280;3567;52.444;13.556;2023-05-09T04:44:39;102026.16;;;9.20;68.42
7052;BME280;3567;52.444;13.556;2023-05-09T04:47:04;102021.47;;;9.22;68.38
7052;BME280;3567;52.444;13.556;2023-05-09T04:49:30;102027.09;;;9.27;68.44
7052;BME280;3567;52.444;13.556;2023-05-09T04:51:55;102021.34;;;9.30;68.63
7052;BME280;3567;52.444;13.556;2023-05-09T04:54:20;102026.97;;;9.35;69.08
7052;BME280;3567;52.444;13.556;2023-05-09T04:56:46;102019.38;;;9.39;68.43
7052;BME280;3567;52.444;13.556;2023-05-09T04:59:11;102023.97;;;9.45;68.56
7052;BME280;3567;52.444;13.556;2023-05-09T05:01:36;102017.66;;;9.53;67.87
7052;BME280;3567;52.444;13.556;2023-05-09T05:04:02;102024.97;;;9.59;68.12
7052;BME280;3567;52.444;13.556;2023-05-09T05:06:27;102012.00;;;9.62;67.39
7052;BME280;3567;52.444;13.556;2023-05-09T05:08:52;102009.78;;;9.66;67.53
7052;BME280;3567;52.444;13.556;2023-05-09T05:11:17;102007.38;;;9.71;67.63
7052;BME280;3567;52.444;13.556;2023-05-09T05:13:44;102006.59;;;9.77;67.53
7052;BME280;3567;52.444;13.556;2023-05-09T05:16:09;102008.69;;;9.82;67.05
7052;BME280;3567;52.444;13.556;2023-05-09T05:18:35;102008.13;;;9.86;67.24
7052;BME280;3567;52.444;13.556;2023-05-09T05:21:00;102013.06;;;9.89;67.34
7052;BME280;3567;52.444;13.556;2023-05-09T05:23:26;102021.00;;;9.97;67.37
7052;BME280;3567;52.444;13.556;2023-05-09T05:25:51;102009.50;;;10.04;66.19
7052;BME280;3567;52.444;13.556;2023-05-09T05:28:17;102014.28;;;10.08;66.41
7052;BME280;3567;52.444;13.556;2023-05-09T05:30:42;102013.88;;;10.11;66.04
7052;BME280;3567;52.444;13.556;2023-05-09T05:33:07;101999.91;;;10.16;65.74
7052;BME280;3567;52.444;13.556;2023-05-09T05:35:33;101999.81;;;10.24;65.63
7052;BME280;3567;52.444;13.556;2023-05-09T05:37:58;102001.69;;;10.30;65.29
7052;BME280;3567;52.444;13.556;2023-05-09T05:40:23;101985.22;;;10.33;64.98
7052;BME280;3567;52.444;13.556;2023-05-09T05:42:49;101991.66;;;10.39;64.73
7052;BME280;3567;52.444;13.556;2023-05-09T05:45:14;101990.47;;;10.48;64.67
7052;BME280;3567;52.444;13.556;2023-05-09T05:47:40;101995.25;;;10.53;63.50
7052;BME280;3567;52.444;13.556;2023-05-09T05:50:05;101980.88;;;10.60;63.20
7052;BME280;3567;52.444;13.556;2023-05-09T05:52:32;101988.13;;;10.66;62.81
7052;BME280;3567;52.444;13.556;2023-05-09T05:54:58;101987.53;;;10.71;63.08
7052;BME280;3567;52.444;13.556;2023-05-09T05:57:23;101983.84;;;10.79;63.15
7052;BME280;3567;52.444;13.556;2023-05-09T05:59:49;101984.28;;;10.82;62.77
7052;BME280;3567;52.444;13.556;2023-05-09T06:02:16;101982.44;;;10.89;63.76
7052;BME280;3567;52.444;13.556;2023-05-09T06:04:42;101983.94;;;10.98;63.18
7052;BME280;3567;52.444;13.556;2023-05-09T06:07:07;101974.25;;;11.04;62.87
7052;BME280;3567;52.444;13.556;2023-05-09T06:09:33;101964.16;;;11.13;62.11
7052;BME280;3567;52.444;13.556;2023-05-09T06:11:58;101965.41;;;11.17;62.28
7052;BME280;3567;52.444;13.556;2023-05-09T06:14:24;101964.38;;;11.18;61.00
7052;BME280;3567;52.444;13.556;2023-05-09T06:16:49;101961.28;;;11.21;61.26
7052;BME280;3567;52.444;13.556;2023-05-09T06:19:16;101958.41;;;11.29;61.83
7052;BME280;3567;52.444;13.556;2023-05-09T06:21:41;101963.59;;;11.37;61.12
7052;BME280;3567;52.444;13.556;2023-05-09T06:24:07;101954.72;;;11.43;61.00
7052;BME280;3567;52.444;13.556;2023-05-09T06:26:32;101958.06;;;11.45;59.96
7052;BME280;3567;52.444;13.556;2023-05-09T06:28:57;101941.53;;;11.48;59.60
7052;BME280;3567;52.444;13.556;2023-05-09T06:31:23;101944.84;;;11.50;59.82
7052;BME280;3567;52.444;13.556;2023-05-09T06:33:48;101939.06;;;11.53;59.86
7052;BME280;3567;52.444;13.556;2023-05-09T06:36:13;101941.56;;;11.62;60.56
7052;BME280;3567;52.444;13.556;2023-05-09T06:38:39;101942.59;;;11.74;60.05
7052;BME280;3567;52.444;13.556;2023-05-09T06:41:04;101929.16;;;11.87;59.31
7052;BME280;3567;52.444;13.556;2023-05-09T06:43:29;101921.34;;;11.86;58.11
7052;BME280;3567;52.444;13.556;2023-05-09T06:45:55;101919.91;;;11.83;58.11
7052;BME280;3567;52.444;13.556;2023-05-09T06:48:20;101915.97;;;11.86;57.76
7052;BME280;3567;52.444;13.556;2023-05-09T06:50:48;101917.22;;;11.90;58.27
7052;BME280;3567;52.444;13.556;2023-05-09T06:53:13;101901.91;;;11.90;56.74
7052;BME280;3567;52.444;13.556;2023-05-09T06:55:39;101907.28;;;11.97;56.97
7052;BME280;3567;52.444;13.556;2023-05-09T06:58:04;101900.25;;;12.02;56.65
7052;BME280;3567;52.444;13.556;2023-05-09T07:00:30;101906.63;;;12.15;57.44
7052;BME280;3567;52.444;13.556;2023-05-09T07:02:55;101900.41;;;12.21;57.08
7052;BME280;3567;52.444;13.556;2023-05-09T07:05:21;101902.25;;;12.27;55.88
7052;BME280;3567;52.444;13.556;2023-05-09T07:07:46;101880.13;;;12.25;54.65
7052;BME280;3567;52.444;13.556;2023-05-09T07:10:11;101878.28;;;12.32;54.52
7052;BME280;3567;52.444;13.556;2023-05-09T07:12:37;101870.59;;;12.42;54.25
7052;BME280;3567;52.444;13.556;2023-05-09T07:15:03;101855.88;;;12.45;52.93
7052;BME280;3567;52.444;13.556;2023-05-09T07:17:29;101852.97;;;12.46;53.37
7052;BME280;3567;52.444;13.556;2023-05-09T07:19:54;101851.69;;;12.55;53.68
7052;BME280;3567;52.444;13.556;2023-05-09T07:22:20;101852.88;;;12.66;53.62
7052;BME280;3567;52.444;13.556;2023-05-09T07:24:45;101842.91;;;12.80;54.57
7052;BME280;3567;52.444;13.556;2023-05-09T07:27:11;101845.88;;;12.97;53.99
7052;BME280;3567;52.444;13.556;2023-05-09T07:29:36;101830.66;;;13.16;53.61
7052;BME280;3567;52.444;13.556;2023-05-09T07:32:02;101844.44;;;13.26;52.53
7052;BME280;3567;52.444;13.556;2023-05-09T07:34:27;101831.13;;;13.38;51.82
7052;BME280;3567;52.444;13.556;2023-05-09T07:36:52;101827.25;;;13.52;51.66
7052;BME280;3567;52.444;13.556;2023-05-09T07:39:18;101833.75;;;13.69;51.76
7052;BME280;3567;52.444;13.556;2023-05-09T07:41:43;101814.59;;;13.77;50.52
7052;BME280;3567;52.444;13.556;2023-05-09T07:44:08;101817.97;;;13.91;49.81
7052;BME280;3567;52.444;13.556;2023-05-09T07:46:35;101801.72;;;13.98;47.94
7052;BME280;3567;52.444;13.556;2023-05-09T07:49:02;101793.94;;;13.89;47.04
7052;BME280;3567;52.444;13.556;2023-05-09T07:51:27;101790.88;;;13.86;47.54
7052;BME280;3567;52.444;13.556;2023-05-09T07:53:52;101790.06;;;13.85;47.96
7052;BME280;3567;52.444;13.556;2023-05-09T07:56:20;101790.56;;;13.94;47.94
7052;BME280;3567;52.444;13.556;2023-05-09T07:58:46;101779.03;;;14.05;47.56
7052;BME280;3567;52.444;13.556;2023-05-09T08:01:12;101767.28;;;14.18;46.64
7052;BME280;3567;52.444;13.556;2023-05-09T08:03:37;101763.34;;;14.32;45.81
7052;BME280;3567;52.444;13.556;2023-05-09T08:06:02;101755.31;;;14.44;45.93
7052;BME280;3567;52.444;13.556;2023-05-09T08:08:28;101752.22;;;14.59;45.04
7052;BME280;3567;52.444;13.556;2023-05-09T08:10:54;101749.44;;;14.65;44.85
7052;BME280;3567;52.444;13.556;2023-05-09T08:13:20;101738.53;;;14.72;44.30
7052;BME280;3567;52.444;13.556;2023-05-09T08:15:46;101747.00;;;14.87;45.07
7052;BME280;3567;52.444;13.556;2023-05-09T08:18:12;101746.91;;;15.06;44.79
7052;BME280;3567;52.444;13.556;2023-05-09T08:20:37;101736.84;;;15.25;44.43
7052;BME280;3567;52.444;13.556;2023-05-09T08:23:02;101734.13;;;15.25;43.99
7052;BME280;3567;52.444;13.556;2023-05-09T08:25:28;101734.38;;;15.35;44.69
7052;BME280;3567;52.444;13.556;2023-05-09T08:27:53;101722.84;;;15.51;44.68
7052;BME280;3567;52.444;13.556;2023-05-09T08:30:19;101725.31;;;15.64;43.60
7052;BME280;3567;52.444;13.556;2023-05-09T08:32:44;101717.75;;;15.78;43.85
7052;BME280;3567;52.444;13.556;2023-05-09T08:35:10;101711.53;;;15.78;42.80
7052;BME280;3567;52.444;13.556;2023-05-09T08:37:35;101726.19;;;15.82;43.62
7052;BME280;3567;52.444;13.556;2023-05-09T08:40:02;101722.91;;;15.80;43.38
7052;BME280;3567;52.444;13.556;2023-05-09T08:42:29;101714.91;;;15.85;43.67
7052;BME280;3567;52.444;13.556;2023-05-09T08:44:56;101712.41;;;15.95;43.39
7052;BME280;3567;52.444;13.556;2023-05-09T08:47:21;101715.47;;;15.98;42.18
7052;BME280;3567;52.444;13.556;2023-05-09T08:49:49;101697.94;;;16.01;42.49
7052;BME280;3567;52.444;13.556;2023-05-09T08:52:15;101716.59;;;16.14;42.60
7052;BME280;3567;52.444;13.556;2023-05-09T08:54:41;101708.06;;;16.22;42.04
7052;BME280;3567;52.444;13.556;2023-05-09T08:57:07;101706.72;;;16.37;41.16
7052;BME280;3567;52.444;13.556;2023-05-09T08:59:33;101694.91;;;16.43;40.95
7052;BME280;3567;52.444;13.556;2023-05-09T09:02:00;101693.44;;;16.35;40.54
7052;BME280;3567;52.444;13.556;2023-05-09T09:04:26;101693.75;;;16.39;40.33
7052;BME280;3567;52.444;13.556;2023-05-09T09:06:52;101679.44;;;16.38;40.61
7052;BME280;3567;52.444;13.556;2023-05-09T09:09:18;101683.84;;;16.61;40.95
7052;BME280;3567;52.444;13.556;2023-05-09T09:11:44;101686.44;;;16.85;40.87
7052;BME280;3567;52.444;13.556;2023-05-09T09:14:15;101675.69;;;16.90;40.11
7052;BME280;3567;52.444;13.556;2023-05-09T09:16:46;101670.66;;;16.98;39.34
7052;BME280;3567;52.444;13.556;2023-05-09T09:19:16;101675.22;;;17.15;39.55
7052;BME280;3567;52.444;13.556;2023-05-09T09:21:43;101662.16;;;17.28;38.90
7052;BME280;3567;52.444;13.556;2023-05-09T09:24:11;101660.34;;;17.34;38.11
7052;BME280;3567;52.444;13.556;2023-05-09T09:26:44;101648.13;;;17.32;36.72
7052;BME280;3567;52.444;13.556;2023-05-09T09:29:10;101655.75;;;17.35;37.66
7052;BME280;3567;52.444;13.556;2023-05-09T09:31:36;101656.13;;;17.43;38.06
7052;BME280;3567;52.444;13.556;2023-05-09T09:34:02;101651.53;;;17.44;37.01
7052;BME280;3567;52.444;13.556;2023-05-09T09:36:31;101646.78;;;17.34;36.52
7052;BME280;3567;52.444;13.556;2023-05-09T09:38:58;101646.78;;;17.34;37.34
7052;BME280;3567;52.444;13.556;2023-05-09T09:41:37;101642.84;;;17.42;35.96
7052;BME280;3567;52.444;13.556;2023-05-09T09:44:11;101635.69;;;17.58;36.69
7052;BME280;3567;52.444;13.556;2023-05-09T09:49:12;101621.72;;;17.88;36.26
7052;BME280;3567;52.444;13.556;2023-05-09T09:51:38;101622.66;;;18.03;36.65
7052;BME280;3567;52.444;13.556;2023-05-09T09:54:08;101616.47;;;18.08;36.78
7052;BME280;3567;52.444;13.556;2023-05-09T09:56:49;101599.00;;;17.94;34.81
7052;BME280;3567;52.444;13.556;2023-05-09T09:59:19;101598.59;;;17.80;35.13
7052;BME280;3567;52.444;13.556;2023-05-09T10:02:02;101608.91;;;17.83;36.46
7052;BME280;3567;52.444;13.556;2023-05-09T10:04:36;101609.78;;;17.89;36.45
7052;BME280;3567;52.444;13.556;2023-05-09T10:07:06;101604.94;;;17.91;35.71
7052;BME280;3567;52.444;13.556;2023-05-09T10:09:33;101600.63;;;17.95;35.67
7052;BME280;3567;52.444;13.556;2023-05-09T10:12:02;101610.69;;;17.99;37.17
7052;BME280;3567;52.444;13.556;2023-05-09T10:14:29;101598.16;;;18.20;35.79
7052;BME280;3567;52.444;13.556;2023-05-09T10:16:55;101589.59;;;18.33;36.46
7052;BME280;3567;52.444;13.556;2023-05-09T10:19:22;101588.03;;;18.48;36.16
7052;BME280;3567;52.444;13.556;2023-05-09T10:21:57;101598.16;;;18.57;35.88
7052;BME280;3567;52.444;13.556;2023-05-09T10:24:26;101582.84;;;18.41;34.45
7052;BME280;3567;52.444;13.556;2023-05-09T10:26:58;101574.94;;;18.35;34.73
7052;BME280;3567;52.444;13.556;2023-05-09T10:29:26;101567.88;;;18.33;35.34
7052;BME280;3567;52.444;13.556;2023-05-09T10:31:58;101569.06;;;18.48;34.80
7052;BME280;3567;52.444;13.556;2023-05-09T10:34:25;101567.72;;;18.50;34.38
7052;BME280;3567;52.444;13.556;2023-05-09T10:36:53;101558.78;;;18.50;35.26
7052;BME280;3567;52.444;13.556;2023-05-09T10:39:19;101549.63;;;18.61;34.93
7052;BME280;3567;52.444;13.556;2023-05-09T10:41:45;101549.34;;;18.63;33.79
7052;BME280;3567;52.444;13.556;2023-05-09T10:44:13;101545.66;;;18.74;33.26
7052;BME280;3567;52.444;13.556;2023-05-09T10:46:39;101547.59;;;18.83;34.15
7052;BME280;3567;52.444;13.556;2023-05-09T10:49:05;101555.34;;;19.22;34.20
7052;BME280;3567;52.444;13.556;2023-05-09T10:51:31;101544.03;;;19.41;33.48
7052;BME280;3567;52.444;13.556;2023-05-09T10:53:57;101548.91;;;19.49;33.76
7052;BME280;3567;52.444;13.556;2023-05-09T10:58:51;101544.09;;;19.61;33.95
7052;BME280;3567;52.444;13.556;2023-05-09T11:01:36;101516.38;;;19.74;32.81
7052;BME280;3567;52.444;13.556;2023-05-09T11:04:14;101514.47;;;19.85;33.21
7052;BME280;3567;52.444;13.556;2023-05-09T11:12:13;101504.94;;;20.08;32.63
7052;BME280;3567;52.444;13.556;2023-05-09T11:14:43;101507.09;;;20.47;33.71
7052;BME280;3567;52.444;13.556;2023-05-09T11:22:28;101474.88;;;21.29;30.55
7052;BME280;3567;52.444;13.556;2023-05-09T11:25:01;101477.25;;;21.45;31.25
7052;BME280;3567;52.444;13.556;2023-05-09T11:27:27;101479.25;;;21.69;31.02
7052;BME280;3567;52.444;13.556;2023-05-09T11:29:55;101465.50;;;21.84;29.50
7052;BME280;3567;52.444;13.556;2023-05-09T11:32:26;101457.03;;;21.52;30.32
7052;BME280;3567;52.444;13.556;2023-05-09T11:35:07;101453.69;;;21.60;29.93
7052;BME280;3567;52.444;13.556;2023-05-09T11:37:59;101443.72;;;21.79;29.48
7052;BME280;3567;52.444;13.556;2023-05-09T11:40:27;101434.66;;;21.84;29.69
7052;BME280;3567;52.444;13.556;2023-05-09T11:42:54;101429.06;;;21.99;29.70
7052;BME280;3567;52.444;13.556;2023-05-09T11:45:23;101409.63;;;22.11;29.53
7052;BME280;3567;52.444;13.556;2023-05-09T11:47:50;101421.78;;;22.42;29.65
7052;BME280;3567;52.444;13.556;2023-05-09T11:50:17;101414.81;;;22.31;29.09
7052;BME280;3567;52.444;13.556;2023-05-09T11:52:43;101405.06;;;22.25;29.40
7052;BME280;3567;52.444;13.556;2023-05-09T11:55:13;101407.28;;;22.47;29.69
7052;BME280;3567;52.444;13.556;2023-05-09T11:57:50;101409.94;;;22.52;29.63
7052;BME280;3567;52.444;13.556;2023-05-09T12:00:16;101390.50;;;22.59;29.54
7052;BME280;3567;52.444;13.556;2023-05-09T12:02:43;101391.97;;;22.70;28.29
7052;BME280;3567;52.444;13.556;2023-05-09T12:05:11;101385.34;;;22.76;28.46
7052;BME280;3567;52.444;13.556;2023-05-09T12:07:37;101395.47;;;22.94;29.15
7052;BME280;3567;52.444;13.556;2023-05-09T12:10:18;101379.72;;;22.86;28.37
7052;BME280;3567;52.444;13.556;2023-05-09T12:12:48;101375.53;;;23.13;28.58
7052;BME280;3567;52.444;13.556;2023-05-09T12:15:14;101372.03;;;23.26;28.93
7052;BME280;3567;52.444;13.556;2023-05-09T12:17:42;101368.38;;;22.98;28.50
7052;BME280;3567;52.444;13.556;2023-05-09T12:20:08;101361.41;;;22.87;28.85
7052;BME280;3567;52.444;13.556;2023-05-09T12:22:34;101362.44;;;22.72;28.95
7052;BME280;3567;52.444;13.556;2023-05-09T12:25:03;101355.41;;;22.85;29.10
7052;BME280;3567;52.444;13.556;2023-05-09T12:27:30;101363.78;;;23.12;28.55
7052;BME280;3567;52.444;13.556;2023-05-09T12:29:57;101353.28;;;23.19;28.16
7052;BME280;3567;52.444;13.556;2023-05-09T12:32:22;101347.88;;;23.33;27.99
7052;BME280;3567;52.444;13.556;2023-05-09T12:34:48;101347.47;;;23.40;28.21
7052;BME280;3567;52.444;13.556;2023-05-09T12:37:18;101354.38;;;23.51;28.98
7052;BME280;3567;52.444;13.556;2023-05-09T12:39:58;101333.00;;;23.39;28.31
7052;BME280;3567;52.444;13.556;2023-05-09T12:42:29;101337.75;;;23.47;28.49
7052;BME280;3567;52.444;13.556;2023-05-09T12:44:55;101325.81;;;23.76;27.94
7052;BME280;3567;52.444;13.556;2023-05-09T12:47:21;101328.03;;;23.88;28.21
7052;BME280;3567;52.444;13.556;2023-05-09T12:49:49;101321.00;;;23.68;27.11
7052;BME280;3567;52.444;13.556;2023-05-09T12:52:18;101324.41;;;23.46;27.06
7052;BME280;3567;52.444;13.556;2023-05-09T12:54:45;101320.31;;;23.43;27.29
7052;BME280;3567;52.444;13.556;2023-05-09T12:57:23;101312.84;;;23.35;28.65
7052;BME280;3567;52.444;13.556;2023-05-09T12:59:49;101321.97;;;23.44;27.26
7052;BME280;3567;52.444;13.556;2023-05-09T13:02:14;101313.72;;;23.31;27.32
7052;BME280;3567;52.444;13.556;2023-05-09T13:04:40;101294.91;;;23.29;26.96
7052;BME280;3567;52.444;13.556;2023-05-09T13:07:08;101299.84;;;23.27;27.41
7052;BME280;3567;52.444;13.556;2023-05-09T13:09:53;101288.22;;;23.35;27.37
7052;BME280;3567;52.444;13.556;2023-05-09T13:12:19;101289.91;;;23.17;27.27
7052;BME280;3567;52.444;13.556;2023-05-09T13:14:44;101283.19;;;22.96;27.33
7052;BME280;3567;52.444;13.556;2023-05-09T13:17:10;101279.53;;;23.00;27.29
7052;BME280;3567;52.444;13.556;2023-05-09T13:19:35;101290.44;;;23.00;28.24
7052;BME280;3567;52.444;13.556;2023-05-09T13:22:03;101286.63;;;23.02;27.67
7052;BME280;3567;52.444;13.556;2023-05-09T13:24:28;101280.88;;;23.17;27.77
7052;BME280;3567;52.444;13.556;2023-05-09T13:26:54;101273.44;;;23.36;27.36
7052;BME280;3567;52.444;13.556;2023-05-09T13:29:19;101282.06;;;23.57;27.70